createdAt,value
2022-12-06T00:01:59.620Z,7.30
2022-12-06T00:04:27.450Z,7.68
2022-12-06T00:06:55.254Z,7.40
2022-12-06T00:09:26.592Z,8.05
2022-12-06T00:11:55.100Z,7.65
2022-12-06T00:14:23.396Z,7.55
2022-12-06T00:16:51.684Z,7.30
2022-12-06T00:19:21.980Z,7.35
2022-12-06T00:21:50.084Z,7.70
2022-12-06T00:24:19.797Z,7.80
2022-12-06T00:26:50.427Z,8.07
2022-12-06T00:29:20.526Z,8.45
2022-12-06T00:31:48.954Z,9.15
2022-12-06T00:34:17.061Z,8.85
2022-12-06T00:36:45.116Z,8.68
2022-12-06T00:39:14.319Z,9.18
2022-12-06T00:41:42.687Z,8.68
2022-12-06T00:44:12.454Z,8.73
2022-12-06T00:46:40.585Z,7.90
2022-12-06T00:49:09.511Z,8.52
2022-12-06T00:51:38.294Z,8.23
2022-12-06T00:54:06.974Z,8.02
2022-12-06T00:56:36.896Z,8.30
2022-12-06T00:59:05.025Z,8.25
2022-12-06T01:01:35.985Z,8.23
2022-12-06T01:04:06.131Z,8.63
2022-12-06T01:06:35.957Z,8.05
2022-12-06T01:09:06.610Z,8.80
2022-12-06T01:11:35.009Z,8.27
2022-12-06T01:14:03.559Z,9.10
2022-12-06T01:16:33.228Z,8.75
2022-12-06T01:19:04.950Z,8.30
2022-12-06T01:21:32.898Z,8.52
2022-12-06T01:24:00.681Z,8.45
2022-12-06T01:26:30.947Z,8.55
2022-12-06T01:28:59.640Z,8.20
2022-12-06T01:31:33.642Z,8.75
2022-12-06T01:34:07.086Z,8.13
2022-12-06T01:36:34.903Z,9.05
2022-12-06T01:39:06.491Z,9.00
2022-12-06T01:41:34.357Z,8.97
2022-12-06T01:44:02.204Z,8.55
2022-12-06T01:46:32.918Z,8.60
2022-12-06T01:49:09.508Z,9.32
2022-12-06T01:51:37.806Z,9.70
2022-12-06T01:54:09.243Z,9.88
2022-12-06T01:56:38.226Z,9.90
2022-12-06T01:59:06.858Z,9.93
2022-12-06T02:01:35.274Z,10.05
2022-12-06T02:04:03.614Z,9.55
2022-12-06T02:06:33.374Z,9.73
2022-12-06T02:09:05.465Z,10.13
2022-12-06T02:11:35.647Z,9.77
2022-12-06T02:14:05.120Z,8.90
2022-12-06T02:16:57.275Z,9.07
2022-12-06T02:19:46.458Z,9.98
2022-12-06T02:22:22.195Z,9.32
2022-12-06T02:25:05.943Z,9.47
2022-12-06T02:27:53.842Z,8.63
2022-12-06T02:30:39.767Z,9.90
2022-12-06T02:33:10.977Z,9.70
2022-12-06T02:35:41.933Z,9.32
2022-12-06T02:38:16.334Z,10.10
2022-12-06T02:40:50.025Z,9.80
2022-12-06T02:43:23.017Z,10.20
2022-12-06T02:45:56.613Z,10.30
2022-12-06T02:48:26.162Z,10.70
2022-12-06T02:50:58.061Z,11.63
2022-12-06T02:53:28.927Z,11.02
2022-12-06T02:55:57.719Z,10.63
2022-12-06T02:58:25.684Z,10.60
2022-12-06T03:00:56.940Z,11.52
2022-12-06T03:03:56.950Z,11.13
2022-12-06T03:06:48.924Z,11.50
2022-12-06T03:09:45.901Z,11.30
2022-12-06T03:12:23.648Z,10.82
2022-12-06T03:15:00.301Z,12.68
2022-12-06T03:17:39.339Z,10.75
2022-12-06T03:20:13.062Z,11.57
2022-12-06T03:22:45.544Z,10.85
2022-12-06T03:25:14.834Z,11.40
2022-12-06T03:27:43.982Z,12.18
2022-12-06T03:30:14.397Z,11.13
2022-12-06T03:32:48.771Z,11.15
2022-12-06T03:35:20.988Z,11.60
2022-12-06T03:37:52.561Z,12.35
2022-12-06T03:40:25.273Z,11.60
2022-12-06T03:42:53.911Z,12.55
2022-12-06T03:45:24.018Z,11.68
2022-12-06T03:47:59.450Z,12.15
2022-12-06T03:50:33.447Z,12.18
2022-12-06T03:53:01.995Z,11.55
2022-12-06T03:55:29.774Z,12.48
2022-12-06T03:57:57.579Z,12.53
2022-12-06T04:00:25.353Z,12.05
2022-12-06T04:02:54.476Z,12.05
2022-12-06T04:05:22.267Z,12.55
2022-12-06T04:07:50.164Z,12.68
2022-12-06T04:10:18.057Z,12.27
2022-12-06T04:13:05.995Z,13.50
2022-12-06T04:15:36.184Z,13.00
2022-12-06T04:18:13.881Z,12.35
2022-12-06T04:21:02.300Z,12.38
2022-12-06T04:23:31.055Z,12.82
2022-12-06T04:25:58.982Z,12.43
2022-12-06T04:28:44.410Z,11.77
2022-12-06T04:31:29.811Z,11.45
2022-12-06T04:34:17.628Z,11.48
2022-12-06T04:37:02.933Z,13.18
2022-12-06T04:39:30.828Z,12.65
2022-12-06T04:42:16.240Z,12.85
2022-12-06T04:44:44.045Z,11.73
2022-12-06T04:47:11.886Z,13.15
2022-12-06T04:49:41.615Z,13.05
2022-12-06T04:52:10.619Z,12.77
2022-12-06T04:54:39.203Z,13.13
2022-12-06T04:57:10.836Z,13.23
2022-12-06T04:59:39.982Z,13.38
2022-12-06T05:02:08.484Z,13.50
2022-12-06T05:04:36.382Z,14.27
2022-12-06T05:07:05.885Z,14.20
2022-12-06T05:09:33.683Z,14.07
2022-12-06T05:12:01.500Z,14.77
2022-12-06T05:14:29.301Z,14.75
2022-12-06T05:16:57.129Z,13.60
2022-12-06T05:19:25.361Z,13.48
2022-12-06T05:21:53.113Z,14.90
2022-12-06T05:24:22.287Z,13.50
2022-12-06T05:26:50.600Z,13.55
2022-12-06T05:29:19.742Z,14.55
2022-12-06T05:31:47.795Z,15.70
2022-12-06T05:34:15.868Z,14.30
2022-12-06T05:36:45.301Z,14.45
2022-12-06T05:39:13.134Z,15.60
2022-12-06T05:41:42.362Z,15.18
2022-12-06T05:44:12.276Z,15.33
2022-12-06T05:46:40.253Z,15.20
2022-12-06T05:49:08.070Z,15.77
2022-12-06T05:51:35.833Z,15.07
2022-12-06T05:54:05.762Z,16.17
2022-12-06T05:56:34.070Z,15.30
2022-12-06T05:59:04.089Z,15.75
2022-12-06T06:01:31.986Z,14.68
2022-12-06T06:03:59.817Z,16.63
2022-12-06T06:06:27.557Z,16.50
2022-12-06T06:08:55.546Z,15.15
2022-12-06T06:11:23.298Z,16.58
2022-12-06T06:13:51.100Z,17.58
2022-12-06T06:16:20.743Z,16.98
2022-12-06T06:18:48.576Z,15.60
2022-12-06T06:21:16.370Z,16.75
2022-12-06T06:23:44.152Z,16.98
2022-12-06T06:26:12.861Z,17.42
2022-12-06T06:28:40.740Z,16.90
2022-12-06T06:31:09.114Z,18.38
2022-12-06T06:33:38.298Z,17.92
2022-12-06T06:36:06.846Z,18.50
2022-12-06T06:38:34.662Z,19.10
2022-12-06T06:41:03.122Z,18.90
2022-12-06T06:43:31.181Z,19.93
2022-12-06T06:46:00.897Z,20.42
2022-12-06T06:48:30.750Z,18.77
2022-12-06T06:51:03.806Z,21.00
2022-12-06T06:53:31.723Z,20.92
2022-12-06T06:55:59.505Z,20.75
2022-12-06T06:58:27.732Z,21.58
2022-12-06T07:00:56.834Z,22.20
2022-12-06T07:03:25.343Z,21.98
2022-12-06T07:05:54.087Z,22.15
2022-12-06T07:08:23.974Z,21.65
2022-12-06T07:10:51.915Z,22.33
2022-12-06T07:13:20.606Z,21.58
2022-12-06T07:15:48.690Z,23.90
2022-12-06T07:18:17.726Z,22.88
2022-12-06T07:20:45.559Z,22.00
2022-12-06T07:23:13.694Z,22.42
2022-12-06T07:25:42.897Z,23.02
2022-12-06T07:28:10.646Z,22.17
2022-12-06T07:30:38.605Z,22.40
2022-12-06T07:33:06.650Z,22.43
2022-12-06T07:36:03.548Z,22.90
2022-12-06T07:38:22.381Z,23.23
2022-12-06T07:41:06.943Z,21.77
2022-12-06T07:43:52.884Z,22.45
2022-12-06T07:46:20.799Z,22.25
2022-12-06T07:48:48.658Z,22.50
2022-12-06T07:51:16.478Z,22.73
2022-12-06T07:53:44.226Z,22.17
2022-12-06T07:56:13.525Z,22.52
2022-12-06T07:58:42.558Z,22.55
2022-12-06T08:01:10.403Z,22.30
2022-12-06T08:03:38.316Z,22.63
2022-12-06T08:06:06.653Z,22.67
2022-12-06T08:08:34.563Z,21.67
2022-12-06T08:11:03.177Z,21.58
2022-12-06T08:13:32.687Z,20.73
2022-12-06T08:16:00.679Z,20.92
2022-12-06T08:18:29.291Z,21.50
2022-12-06T08:20:58.692Z,20.80
2022-12-06T08:23:33.711Z,21.35
2022-12-06T08:26:04.968Z,20.88
2022-12-06T08:28:35.364Z,20.27
2022-12-06T08:31:08.553Z,19.20
2022-12-06T08:33:36.772Z,19.20
2022-12-06T08:36:09.377Z,19.58
2022-12-06T08:38:37.644Z,20.05
2022-12-06T08:41:05.710Z,19.23
2022-12-06T08:43:34.845Z,18.50
2022-12-06T08:46:02.678Z,18.20
2022-12-06T08:48:30.463Z,17.50
2022-12-06T08:51:03.153Z,18.75
2022-12-06T08:53:30.913Z,18.70
2022-12-06T08:56:02.879Z,18.30
2022-12-06T08:58:31.141Z,18.50
2022-12-06T09:01:00.260Z,17.75
2022-12-06T09:03:28.037Z,18.73
2022-12-06T09:05:55.857Z,19.48
2022-12-06T09:08:23.844Z,16.60
2022-12-06T09:10:51.725Z,17.70
2022-12-06T09:13:19.495Z,17.38
2022-12-06T09:15:47.366Z,16.70
2022-12-06T09:18:16.552Z,17.33
2022-12-06T09:20:44.417Z,17.27
2022-12-06T09:23:12.424Z,16.75
2022-12-06T09:25:42.729Z,16.90
2022-12-06T09:28:12.148Z,16.73
2022-12-06T09:30:39.994Z,16.27
2022-12-06T09:33:07.763Z,16.88
2022-12-06T09:35:37.704Z,16.73
2022-12-06T09:38:06.251Z,16.33
2022-12-06T09:40:41.374Z,15.65
2022-12-06T09:43:21.817Z,15.30
2022-12-06T09:46:02.546Z,14.95
2022-12-06T09:48:57.031Z,14.60
2022-12-06T09:51:38.761Z,13.70
2022-12-06T09:54:20.192Z,13.35
2022-12-06T09:56:52.876Z,13.55
2022-12-06T09:59:30.395Z,13.55
2022-12-06T10:02:15.044Z,13.37
2022-12-06T10:05:01.226Z,12.88
2022-12-06T10:07:42.418Z,11.63
2022-12-06T10:10:22.355Z,11.03
2022-12-06T10:13:04.140Z,11.43
2022-12-06T10:15:45.060Z,10.88
2022-12-06T10:18:33.667Z,10.73
2022-12-06T10:21:12.223Z,10.40
2022-12-06T10:24:01.437Z,10.68
2022-12-06T10:26:40.356Z,10.63
2022-12-06T10:29:23.142Z,10.30
2022-12-06T10:31:58.696Z,10.95
2022-12-06T10:34:45.720Z,10.55
2022-12-06T10:37:32.017Z,10.48
2022-12-06T10:40:07.908Z,10.20
2022-12-06T10:42:41.221Z,10.23
2022-12-06T10:45:37.724Z,10.07
2022-12-06T10:48:15.909Z,10.60
2022-12-06T10:50:51.553Z,10.47
2022-12-06T10:53:23.606Z,10.30
2022-12-06T10:55:57.542Z,9.80
2022-12-06T10:58:33.329Z,10.27
2022-12-06T11:01:04.277Z,10.05
2022-12-06T11:03:35.943Z,9.68
2022-12-06T11:06:09.354Z,9.52
2022-12-06T11:08:41.049Z,10.18
2022-12-06T11:11:17.274Z,9.90
2022-12-06T11:13:48.749Z,9.82
2022-12-06T11:16:21.877Z,8.90
2022-12-06T11:18:50.495Z,9.70
2022-12-06T11:21:29.073Z,8.95
2022-12-06T11:24:03.652Z,9.18
2022-12-06T11:26:38.931Z,8.45
2022-12-06T11:29:12.221Z,8.77
2022-12-06T11:31:45.379Z,9.17
2022-12-06T11:34:17.674Z,8.43
2022-12-06T11:36:46.811Z,9.25
2022-12-06T11:39:15.978Z,8.60
2022-12-06T11:41:48.935Z,8.45
2022-12-06T11:44:20.297Z,8.77
2022-12-06T11:46:52.779Z,8.38
2022-12-06T11:49:28.611Z,8.45
2022-12-06T11:51:58.588Z,9.20
2022-12-06T11:54:32.730Z,8.70
2022-12-06T11:57:17.987Z,8.85
2022-12-06T12:00:12.971Z,7.32
2022-12-06T12:02:42.249Z,6.93
2022-12-06T12:05:12.418Z,7.35
2022-12-06T12:07:42.353Z,7.18
2022-12-06T12:10:44.192Z,7.03
2022-12-06T12:13:39.590Z,6.93
2022-12-06T12:16:15.037Z,6.82
2022-12-06T12:18:50.829Z,7.25
2022-12-06T12:21:37.817Z,6.95
2022-12-06T12:24:07.692Z,6.85
2022-12-06T12:26:38.818Z,7.47
2022-12-06T12:29:16.441Z,7.00
2022-12-06T12:31:52.977Z,7.25
2022-12-06T12:34:22.278Z,7.60
2022-12-06T12:36:52.620Z,7.10
2022-12-06T12:39:32.354Z,7.30
2022-12-06T12:42:00.358Z,7.18
2022-12-06T12:44:40.145Z,5.93
2022-12-06T12:47:18.756Z,5.55
2022-12-06T12:50:01.761Z,6.43
2022-12-06T12:52:31.957Z,6.15
2022-12-06T12:55:02.768Z,7.20
2022-12-06T12:57:30.950Z,5.50
2022-12-06T13:00:00.844Z,6.10
2022-12-06T13:02:31.801Z,5.65
2022-12-06T13:07:53.917Z,6.43
2022-12-06T13:10:26.993Z,5.63
2022-12-06T13:12:57.265Z,5.90
2022-12-06T13:15:33.295Z,5.63
2022-12-06T13:18:06.593Z,5.47
2022-12-06T13:20:36.361Z,5.40
2022-12-06T13:23:08.846Z,6.07
2022-12-06T13:25:37.922Z,6.28
2022-12-06T13:28:13.617Z,6.47
2022-12-06T13:30:44.735Z,6.45
2022-12-06T13:33:21.333Z,6.72
2022-12-06T13:35:58.250Z,7.80
2022-12-06T13:38:31.296Z,7.50
2022-12-06T13:40:59.708Z,6.72
2022-12-06T13:44:00.420Z,7.23
2022-12-06T13:46:32.183Z,8.88
2022-12-06T13:49:06.038Z,5.38
2022-12-06T13:51:47.942Z,7.53
2022-12-06T13:54:36.849Z,6.43
2022-12-06T13:57:29.544Z,5.93
2022-12-06T13:59:58.159Z,5.68
2022-12-06T14:02:55.163Z,5.28
2022-12-06T14:06:09.015Z,6.30
2022-12-06T14:08:41.919Z,6.50
2022-12-06T14:11:17.220Z,5.60
2022-12-06T14:13:46.864Z,5.63
2022-12-06T14:16:22.513Z,6.20
2022-12-06T14:18:52.222Z,5.38
2022-12-06T14:21:27.228Z,6.80
2022-12-06T14:23:55.008Z,5.50
2022-12-06T14:26:25.423Z,5.15
2022-12-06T14:28:55.340Z,6.25
2022-12-06T14:31:27.845Z,6.75
2022-12-06T14:33:57.790Z,5.10
2022-12-06T14:36:29.146Z,6.28
2022-12-06T14:39:02.640Z,5.73
2022-12-06T14:41:54.098Z,5.83
2022-12-06T14:44:27.984Z,5.50
2022-12-06T14:46:56.322Z,6.53
2022-12-06T14:49:45.184Z,7.75
2022-12-06T14:52:22.509Z,6.18
2022-12-06T14:54:52.029Z,7.50
2022-12-06T14:57:30.489Z,5.47
2022-12-06T15:00:27.164Z,5.63
2022-12-06T15:03:06.982Z,6.25
2022-12-06T15:05:37.793Z,6.22
2022-12-06T15:08:33.491Z,6.63
2022-12-06T15:11:03.611Z,6.20
2022-12-06T15:13:30.647Z,6.60
2022-12-06T15:16:16.431Z,4.82
2022-12-06T15:18:55.509Z,5.30
2022-12-06T15:21:24.922Z,5.07
2022-12-06T15:23:54.178Z,5.90
2022-12-06T15:26:24.486Z,6.03
2022-12-06T15:28:52.741Z,5.65
2022-12-06T15:31:23.095Z,5.38
2022-12-06T15:33:50.945Z,5.00
2022-12-06T15:36:20.610Z,5.63
2022-12-06T15:38:50.100Z,5.20
2022-12-06T15:41:19.559Z,5.63
2022-12-06T15:43:47.814Z,4.72
2022-12-06T15:46:20.066Z,5.03
2022-12-06T15:48:48.408Z,4.65
2022-12-06T15:51:20.936Z,5.53
2022-12-06T15:53:51.520Z,5.05
2022-12-06T15:56:21.117Z,5.83
2022-12-06T15:58:49.414Z,5.85
2022-12-06T16:01:19.990Z,5.68
2022-12-06T16:03:48.169Z,6.43
2022-12-06T16:06:17.701Z,6.80
2022-12-06T16:08:46.339Z,5.75
2022-12-06T16:11:18.571Z,5.88
2022-12-06T16:13:46.616Z,6.43
2022-12-06T16:16:16.276Z,6.55
2022-12-06T16:18:44.736Z,7.10
2022-12-06T16:21:20.737Z,7.10
2022-12-06T16:24:12.919Z,7.00
2022-12-06T16:26:44.768Z,7.45
2022-12-06T16:29:15.980Z,7.72
2022-12-06T16:31:43.938Z,7.22
2022-12-06T16:34:11.981Z,7.35
2022-12-06T16:36:55.883Z,7.88
2022-12-06T16:39:24.097Z,7.80
2022-12-06T16:41:53.272Z,7.40
2022-12-06T16:44:21.171Z,7.97
2022-12-06T16:46:49.045Z,7.82
2022-12-06T16:49:45.282Z,7.90
2022-12-06T16:52:07.718Z,8.55
2022-12-06T16:54:35.731Z,8.53
2022-12-06T16:57:04.945Z,8.88
2022-12-06T16:59:32.717Z,9.18
2022-12-06T17:02:01.519Z,8.65
2022-12-06T17:04:31.439Z,8.23
2022-12-06T17:06:59.233Z,7.97
2022-12-06T17:09:27.008Z,9.20
2022-12-06T17:12:06.062Z,8.93
2022-12-06T17:14:35.991Z,9.77
2022-12-06T17:17:04.374Z,9.13
2022-12-06T17:19:33.546Z,9.07
2022-12-06T17:22:02.110Z,9.47
2022-12-06T17:24:29.984Z,9.00
2022-12-06T17:26:59.018Z,9.43
2022-12-06T17:29:27.379Z,9.20
2022-12-06T17:31:57.114Z,9.23
2022-12-06T17:34:25.650Z,8.50
2022-12-06T17:36:53.982Z,9.00
2022-12-06T17:39:22.385Z,9.25
2022-12-06T17:42:07.736Z,9.77
2022-12-06T17:44:35.554Z,9.38
2022-12-06T17:47:05.253Z,9.10
2022-12-06T17:49:35.797Z,9.60
2022-12-06T17:52:03.649Z,9.02
2022-12-06T17:54:31.457Z,9.13
2022-12-06T17:56:59.354Z,10.27
2022-12-06T17:59:30.172Z,10.33
2022-12-06T18:02:16.431Z,9.45
2022-12-06T18:04:47.271Z,10.63
2022-12-06T18:07:16.071Z,10.07
2022-12-06T18:09:43.876Z,9.50
2022-12-06T18:12:12.990Z,10.48
2022-12-06T18:14:40.845Z,10.93
2022-12-06T18:17:08.731Z,11.10
2022-12-06T18:19:36.680Z,10.32
2022-12-06T18:22:05.847Z,10.90
2022-12-06T18:24:35.930Z,11.10
2022-12-06T18:27:04.699Z,10.77
2022-12-06T18:29:32.775Z,10.43
2022-12-06T18:32:00.690Z,10.57
2022-12-06T18:34:28.561Z,10.25
2022-12-06T18:36:56.506Z,10.32
2022-12-06T18:39:25.825Z,9.75
2022-12-06T18:41:54.533Z,10.20
2022-12-06T18:44:22.686Z,10.27
2022-12-06T18:46:50.526Z,10.95
2022-12-06T18:49:18.503Z,11.55
2022-12-06T18:51:46.321Z,10.95
2022-12-06T18:54:14.633Z,12.45
2022-12-06T18:56:43.818Z,10.63
2022-12-06T18:59:12.734Z,10.90
2022-12-06T19:01:41.759Z,10.90
2022-12-06T19:04:14.670Z,10.38
2022-12-06T19:06:44.448Z,11.20
2022-12-06T19:09:14.888Z,13.40
2022-12-06T19:11:45.613Z,11.82
2022-12-06T19:14:14.128Z,13.30
2022-12-06T19:16:43.747Z,13.32
2022-12-06T19:19:16.571Z,15.32
2022-12-06T19:21:46.540Z,12.68
2022-12-06T19:24:16.611Z,12.07
2022-12-06T19:26:45.925Z,11.73
2022-12-06T19:29:16.246Z,11.95
2022-12-06T19:31:44.644Z,12.55
2022-12-06T19:34:16.428Z,12.32
2022-12-06T19:36:45.141Z,11.98
2022-12-06T19:39:13.706Z,13.75
2022-12-06T19:41:55.868Z,13.00
2022-12-06T19:44:25.175Z,12.27
2022-12-06T19:46:53.059Z,13.33
2022-12-06T19:49:23.161Z,13.15
2022-12-06T19:51:51.567Z,13.20
2022-12-06T19:54:22.082Z,12.23
2022-12-06T19:56:53.016Z,13.18
2022-12-06T19:59:21.161Z,12.77
2022-12-06T20:01:50.778Z,12.80
2022-12-06T20:04:21.057Z,13.40
2022-12-06T20:06:49.097Z,13.07
2022-12-06T20:09:17.486Z,13.50
2022-12-06T20:12:03.875Z,13.15
2022-12-06T20:14:36.298Z,13.17
2022-12-06T20:17:07.352Z,13.60
2022-12-06T20:19:35.264Z,14.77
2022-12-06T20:22:03.066Z,13.32
2022-12-06T20:24:31.099Z,14.53
2022-12-06T20:26:59.336Z,15.00
2022-12-06T20:29:29.757Z,15.13
2022-12-06T20:31:59.452Z,15.23
2022-12-06T20:34:34.239Z,15.30
2022-12-06T20:37:04.045Z,15.88
2022-12-06T20:39:34.931Z,15.25
2022-12-06T20:42:03.895Z,15.45
2022-12-06T20:44:31.814Z,16.80
2022-12-06T20:47:00.130Z,16.70
2022-12-06T20:49:29.493Z,16.25
2022-12-06T20:51:57.958Z,16.38
2022-12-06T20:54:25.762Z,16.55
2022-12-06T20:56:53.647Z,15.25
2022-12-06T20:59:21.761Z,16.40
2022-12-06T21:01:49.695Z,16.45
2022-12-06T21:04:18.049Z,17.05
2022-12-06T21:06:47.196Z,16.13
2022-12-06T21:09:15.004Z,17.40
2022-12-06T21:11:43.657Z,16.90
2022-12-06T21:14:13.799Z,17.17
2022-12-06T21:16:43.269Z,17.75
2022-12-06T21:19:14.757Z,16.85
2022-12-06T21:21:46.362Z,17.92
2022-12-06T21:24:17.478Z,17.85
2022-12-06T21:26:45.486Z,17.23
2022-12-06T21:29:16.922Z,18.25
2022-12-06T21:31:44.841Z,18.42
2022-12-06T21:34:12.947Z,18.93
2022-12-06T21:36:40.808Z,19.10
2022-12-06T21:39:09.031Z,19.37
2022-12-06T21:41:38.560Z,19.67
2022-12-06T21:44:06.649Z,19.45
2022-12-06T21:46:34.735Z,19.77
2022-12-06T21:49:02.710Z,19.10
2022-12-06T21:51:32.885Z,19.67
2022-12-06T21:54:01.504Z,20.38
2022-12-06T21:56:31.014Z,20.15
2022-12-06T21:59:01.417Z,20.27
2022-12-06T22:01:31.020Z,20.63
2022-12-06T22:04:00.929Z,20.60
2022-12-06T22:06:28.866Z,20.42
2022-12-06T22:08:58.812Z,19.52
2022-12-06T22:11:27.663Z,18.63
2022-12-06T22:13:55.553Z,20.08
2022-12-06T22:16:24.763Z,18.77
2022-12-06T22:18:55.197Z,17.33
2022-12-06T22:21:25.653Z,19.20
2022-12-06T22:23:53.828Z,18.92
2022-12-06T22:26:23.656Z,17.83
2022-12-06T22:28:52.112Z,17.80
2022-12-06T22:31:22.058Z,17.40
2022-12-06T22:33:52.385Z,17.00
2022-12-06T22:36:21.693Z,17.27
2022-12-06T22:38:50.336Z,17.52
2022-12-06T22:41:18.801Z,17.38
2022-12-06T22:43:46.881Z,16.63
2022-12-06T22:46:16.576Z,17.37
2022-12-06T22:48:44.977Z,16.13
2022-12-06T22:51:16.113Z,16.35
2022-12-06T22:53:46.538Z,16.67
2022-12-06T22:56:15.444Z,16.38
2022-12-06T22:58:43.205Z,16.15
2022-12-06T23:01:16.545Z,15.88
2022-12-06T23:03:45.481Z,15.75
2022-12-06T23:06:16.566Z,15.93
2022-12-06T23:08:44.863Z,15.90
2022-12-06T23:11:14.620Z,15.40
2022-12-06T23:13:43.983Z,16.17
2022-12-06T23:16:13.942Z,15.80
2022-12-06T23:18:41.978Z,15.27
2022-12-06T23:21:13.253Z,15.93
2022-12-06T23:23:45.609Z,16.13
2022-12-06T23:26:16.210Z,15.95
2022-12-06T23:28:46.302Z,16.48
2022-12-06T23:31:17.377Z,16.15
2022-12-06T23:36:14.827Z,16.20
2022-12-06T23:38:44.222Z,16.88
2022-12-06T23:41:14.391Z,16.42
2022-12-06T23:43:43.220Z,15.90
2022-12-06T23:46:13.922Z,16.08
2022-12-06T23:48:42.172Z,16.80
2022-12-06T23:51:13.066Z,16.70
2022-12-06T23:53:41.742Z,16.48
2022-12-06T23:56:12.969Z,15.48
2022-12-06T23:58:41.175Z,15.85
